San Diego, California
Traffic Map
Current Weather Conditions
San Diego, California
Clear
Clear
63°
Feels Like: 63°
Wind Chill: 63° Ceiling: Unl
Heat Index: 63° Visibility: 10mi
Dew Point: 27° Wind: 5mph
Humidity: 26% Direction: 320° (NW)
Pressure: 30.16in Gusts: 0mph
Raw Report DataKSAN 060551Z 32004KT 10SM CLR 17/M03 A3016 RMK AO2 SLP212 T01721028 10233 20167 50001
Traffic Incident Summary
Active as of:
Severity:
Category:
InformationThere was an issue retrieving the traffic information for this location. Please try a different location or try again shortly.
Advertisements
Track Severe Weather on mobile